sensor_id;sensor_type;location;lat;lon;timestamp;P1;durP1;ratioP1;P2;durP2;ratioP2
43606;SDS011;29197;44.788;10.366;2024-01-15T00:02:36;69.67;;;37.20;;
43606;SDS011;29197;44.788;10.366;2024-01-15T00:05:25;72.23;;;38.40;;
43606;SDS011;29197;44.788;10.366;2024-01-15T00:08:14;76.57;;;40.47;;
43606;SDS011;29197;44.788;10.366;2024-01-15T00:11:03;72.87;;;38.23;;
43606;SDS011;29197;44.788;10.366;2024-01-15T00:13:52;69.87;;;37.37;;
43606;SDS011;29197;44.788;10.366;2024-01-15T00:16:42;77.77;;;39.83;;
43606;SDS011;29197;44.788;10.366;2024-01-15T00:19:31;71.67;;;36.97;;
43606;SDS011;29197;44.788;10.366;2024-01-15T00:22:21;77.07;;;40.07;;
43606;SDS011;29197;44.788;10.366;2024-01-15T00:25:10;70.77;;;38.80;;
43606;SDS011;29197;44.788;10.366;2024-01-15T00:27:59;74.50;;;39.17;;
43606;SDS011;29197;44.788;10.366;2024-01-15T00:30:48;79.77;;;40.67;;
43606;SDS011;29197;44.788;10.366;2024-01-15T00:33:38;80.80;;;40.63;;
43606;SDS011;29197;44.788;10.366;2024-01-15T00:36:27;68.73;;;36.87;;
43606;SDS011;29197;44.788;10.366;2024-01-15T00:39:16;77.03;;;39.77;;
43606;SDS011;29197;44.788;10.366;2024-01-15T00:42:05;76.03;;;39.73;;
43606;SDS011;29197;44.788;10.366;2024-01-15T00:44:54;74.40;;;37.77;;
43606;SDS011;29197;44.788;10.366;2024-01-15T00:47:43;73.60;;;38.00;;
43606;SDS011;29197;44.788;10.366;2024-01-15T00:50:34;73.40;;;38.30;;
43606;SDS011;29197;44.788;10.366;2024-01-15T00:53:22;84.03;;;41.93;;
43606;SDS011;29197;44.788;10.366;2024-01-15T00:56:11;81.87;;;41.23;;
43606;SDS011;29197;44.788;10.366;2024-01-15T00:59:00;82.03;;;42.03;;
43606;SDS011;29197;44.788;10.366;2024-01-15T01:01:49;77.90;;;38.87;;
43606;SDS011;29197;44.788;10.366;2024-01-15T01:04:38;84.73;;;42.00;;
43606;SDS011;29197;44.788;10.366;2024-01-15T01:07:28;79.53;;;39.17;;
43606;SDS011;29197;44.788;10.366;2024-01-15T01:10:17;84.93;;;41.43;;
43606;SDS011;29197;44.788;10.366;2024-01-15T01:13:06;78.10;;;39.37;;
43606;SDS011;29197;44.788;10.366;2024-01-15T01:15:54;73.60;;;38.10;;
43606;SDS011;29197;44.788;10.366;2024-01-15T01:18:43;78.50;;;39.83;;
43606;SDS011;29197;44.788;10.366;2024-01-15T01:21:33;78.17;;;40.40;;
43606;SDS011;29197;44.788;10.366;2024-01-15T01:24:23;78.80;;;41.30;;
43606;SDS011;29197;44.788;10.366;2024-01-15T01:27:12;75.23;;;39.57;;
43606;SDS011;29197;44.788;10.366;2024-01-15T01:30:01;80.30;;;40.20;;
43606;SDS011;29197;44.788;10.366;2024-01-15T01:32:50;85.30;;;41.63;;
43606;SDS011;29197;44.788;10.366;2024-01-15T01:35:39;68.63;;;36.27;;
43606;SDS011;29197;44.788;10.366;2024-01-15T01:38:27;71.87;;;37.47;;
43606;SDS011;29197;44.788;10.366;2024-01-15T01:41:18;78.63;;;38.57;;
43606;SDS011;29197;44.788;10.366;2024-01-15T01:44:06;86.97;;;43.07;;
43606;SDS011;29197;44.788;10.366;2024-01-15T01:46:55;93.27;;;44.27;;
43606;SDS011;29197;44.788;10.366;2024-01-15T01:49:44;94.43;;;44.00;;
43606;SDS011;29197;44.788;10.366;2024-01-15T01:52:34;97.67;;;45.07;;
43606;SDS011;29197;44.788;10.366;2024-01-15T01:55:24;99.40;;;46.97;;
43606;SDS011;29197;44.788;10.366;2024-01-15T01:58:16;105.33;;;49.27;;
43606;SDS011;29197;44.788;10.366;2024-01-15T02:01:05;102.60;;;47.40;;
43606;SDS011;29197;44.788;10.366;2024-01-15T02:03:55;101.13;;;46.60;;
43606;SDS011;29197;44.788;10.366;2024-01-15T02:06:44;96.90;;;44.97;;
43606;SDS011;29197;44.788;10.366;2024-01-15T02:09:33;94.97;;;45.10;;
43606;SDS011;29197;44.788;10.366;2024-01-15T02:12:22;107.93;;;47.23;;
43606;SDS011;29197;44.788;10.366;2024-01-15T02:15:12;103.17;;;46.43;;
43606;SDS011;29197;44.788;10.366;2024-01-15T02:18:02;89.53;;;44.20;;
43606;SDS011;29197;44.788;10.366;2024-01-15T02:20:51;95.40;;;47.33;;
43606;SDS011;29197;44.788;10.366;2024-01-15T02:23:41;93.63;;;43.03;;
43606;SDS011;29197;44.788;10.366;2024-01-15T02:26:30;93.93;;;44.80;;
43606;SDS011;29197;44.788;10.366;2024-01-15T02:29:22;87.60;;;42.63;;
43606;SDS011;29197;44.788;10.366;2024-01-15T02:32:11;91.10;;;44.03;;
43606;SDS011;29197;44.788;10.366;2024-01-15T02:35:00;89.37;;;42.97;;
43606;SDS011;29197;44.788;10.366;2024-01-15T02:37:49;89.77;;;44.93;;
43606;SDS011;29197;44.788;10.366;2024-01-15T02:40:39;89.17;;;42.67;;
43606;SDS011;29197;44.788;10.366;2024-01-15T02:43:28;91.63;;;43.97;;
43606;SDS011;29197;44.788;10.366;2024-01-15T02:46:17;88.10;;;43.57;;
43606;SDS011;29197;44.788;10.366;2024-01-15T02:49:06;83.50;;;42.17;;
43606;SDS011;29197;44.788;10.366;2024-01-15T02:51:55;86.97;;;42.57;;
43606;SDS011;29197;44.788;10.366;2024-01-15T02:54:44;94.77;;;45.23;;
43606;SDS011;29197;44.788;10.366;2024-01-15T02:57:34;84.67;;;42.70;;
43606;SDS011;29197;44.788;10.366;2024-01-15T03:00:23;94.30;;;45.57;;
43606;SDS011;29197;44.788;10.366;2024-01-15T03:03:12;90.97;;;44.33;;
43606;SDS011;29197;44.788;10.366;2024-01-15T03:06:01;93.27;;;45.30;;
43606;SDS011;29197;44.788;10.366;2024-01-15T03:08:50;92.33;;;45.47;;
43606;SDS011;29197;44.788;10.366;2024-01-15T03:11:39;88.97;;;46.10;;
43606;SDS011;29197;44.788;10.366;2024-01-15T03:14:29;94.10;;;43.67;;
43606;SDS011;29197;44.788;10.366;2024-01-15T03:17:18;97.47;;;46.63;;
43606;SDS011;29197;44.788;10.366;2024-01-15T03:20:07;92.40;;;45.53;;
43606;SDS011;29197;44.788;10.366;2024-01-15T03:22:56;96.87;;;46.83;;
43606;SDS011;29197;44.788;10.366;2024-01-15T03:25:45;94.20;;;45.80;;
43606;SDS011;29197;44.788;10.366;2024-01-15T03:28:34;96.47;;;44.73;;
43606;SDS011;29197;44.788;10.366;2024-01-15T03:31:24;83.97;;;42.40;;
43606;SDS011;29197;44.788;10.366;2024-01-15T03:34:13;83.93;;;42.90;;
43606;SDS011;29197;44.788;10.366;2024-01-15T03:37:03;90.47;;;42.73;;
43606;SDS011;29197;44.788;10.366;2024-01-15T03:39:52;78.03;;;41.53;;
43606;SDS011;29197;44.788;10.366;2024-01-15T03:42:41;75.47;;;39.67;;
43606;SDS011;29197;44.788;10.366;2024-01-15T03:45:30;76.53;;;41.77;;
43606;SDS011;29197;44.788;10.366;2024-01-15T03:48:20;76.33;;;40.80;;
43606;SDS011;29197;44.788;10.366;2024-01-15T03:51:09;74.03;;;40.37;;
43606;SDS011;29197;44.788;10.366;2024-01-15T03:53:58;75.03;;;40.07;;
43606;SDS011;29197;44.788;10.366;2024-01-15T03:56:47;78.23;;;42.53;;
43606;SDS011;29197;44.788;10.366;2024-01-15T03:59:36;77.37;;;40.90;;
43606;SDS011;29197;44.788;10.366;2024-01-15T04:02:25;81.37;;;41.60;;
43606;SDS011;29197;44.788;10.366;2024-01-15T04:05:15;87.80;;;42.93;;
43606;SDS011;29197;44.788;10.366;2024-01-15T04:08:04;86.00;;;42.60;;
43606;SDS011;29197;44.788;10.366;2024-01-15T04:10:53;86.13;;;43.20;;
43606;SDS011;29197;44.788;10.366;2024-01-15T04:13:42;83.17;;;44.57;;
43606;SDS011;29197;44.788;10.366;2024-01-15T04:16:31;88.00;;;45.50;;
43606;SDS011;29197;44.788;10.366;2024-01-15T04:19:20;76.83;;;42.80;;
43606;SDS011;29197;44.788;10.366;2024-01-15T04:22:10;84.07;;;42.47;;
43606;SDS011;29197;44.788;10.366;2024-01-15T04:24:59;88.53;;;46.03;;
43606;SDS011;29197;44.788;10.366;2024-01-15T04:27:48;86.00;;;44.37;;
43606;SDS011;29197;44.788;10.366;2024-01-15T04:30:37;86.73;;;45.90;;
43606;SDS011;29197;44.788;10.366;2024-01-15T04:33:35;95.00;;;48.97;;
43606;SDS011;29197;44.788;10.366;2024-01-15T04:36:28;90.47;;;46.83;;
43606;SDS011;29197;44.788;10.366;2024-01-15T04:39:18;90.73;;;46.10;;
43606;SDS011;29197;44.788;10.366;2024-01-15T04:42:07;94.40;;;46.37;;
43606;SDS011;29197;44.788;10.366;2024-01-15T04:44:56;84.87;;;44.67;;
43606;SDS011;29197;44.788;10.366;2024-01-15T04:47:48;93.73;;;46.93;;
43606;SDS011;29197;44.788;10.366;2024-01-15T04:50:49;87.97;;;45.17;;
43606;SDS011;29197;44.788;10.366;2024-01-15T04:53:38;89.27;;;47.27;;
43606;SDS011;29197;44.788;10.366;2024-01-15T04:56:28;94.33;;;46.27;;
43606;SDS011;29197;44.788;10.366;2024-01-15T04:59:17;96.27;;;46.87;;
43606;SDS011;29197;44.788;10.366;2024-01-15T05:02:06;97.67;;;46.23;;
43606;SDS011;29197;44.788;10.366;2024-01-15T05:04:55;91.77;;;47.20;;
43606;SDS011;29197;44.788;10.366;2024-01-15T05:07:43;94.23;;;44.27;;
43606;SDS011;29197;44.788;10.366;2024-01-15T05:10:32;92.40;;;44.07;;
43606;SDS011;29197;44.788;10.366;2024-01-15T05:13:22;85.38;;;47.38;;
43606;SDS011;29197;44.788;10.366;2024-01-15T05:16:11;85.50;;;43.30;;
43606;SDS011;29197;44.788;10.366;2024-01-15T05:19:00;94.07;;;45.30;;
43606;SDS011;29197;44.788;10.366;2024-01-15T05:21:49;82.50;;;40.80;;
43606;SDS011;29197;44.788;10.366;2024-01-15T05:24:38;81.83;;;39.60;;
43606;SDS011;29197;44.788;10.366;2024-01-15T05:27:27;83.33;;;38.73;;
43606;SDS011;29197;44.788;10.366;2024-01-15T05:30:22;73.97;;;38.67;;
43606;SDS011;29197;44.788;10.366;2024-01-15T05:33:12;83.27;;;41.63;;
43606;SDS011;29197;44.788;10.366;2024-01-15T05:36:01;90.03;;;43.47;;
43606;SDS011;29197;44.788;10.366;2024-01-15T05:38:50;96.43;;;45.50;;
43606;SDS011;29197;44.788;10.366;2024-01-15T05:41:39;82.50;;;41.43;;
43606;SDS011;29197;44.788;10.366;2024-01-15T05:44:28;84.07;;;40.60;;
43606;SDS011;29197;44.788;10.366;2024-01-15T05:47:18;83.00;;;41.60;;
43606;SDS011;29197;44.788;10.366;2024-01-15T05:50:08;79.30;;;39.37;;
43606;SDS011;29197;44.788;10.366;2024-01-15T05:52:57;81.87;;;38.93;;
43606;SDS011;29197;44.788;10.366;2024-01-15T05:55:45;74.77;;;39.00;;
43606;SDS011;29197;44.788;10.366;2024-01-15T05:58:34;74.40;;;39.77;;
43606;SDS011;29197;44.788;10.366;2024-01-15T06:01:23;81.30;;;42.37;;
43606;SDS011;29197;44.788;10.366;2024-01-15T06:04:13;72.03;;;39.43;;
43606;SDS011;29197;44.788;10.366;2024-01-15T06:07:02;76.27;;;40.30;;
43606;SDS011;29197;44.788;10.366;2024-01-15T06:09:51;77.30;;;39.07;;
43606;SDS011;29197;44.788;10.366;2024-01-15T06:12:42;72.03;;;38.70;;
43606;SDS011;29197;44.788;10.366;2024-01-15T06:15:31;77.20;;;39.73;;
43606;SDS011;29197;44.788;10.366;2024-01-15T06:18:20;70.97;;;38.60;;
43606;SDS011;29197;44.788;10.366;2024-01-15T06:21:11;67.43;;;38.10;;
43606;SDS011;29197;44.788;10.366;2024-01-15T06:24:01;64.90;;;37.30;;
43606;SDS011;29197;44.788;10.366;2024-01-15T06:26:50;63.27;;;35.50;;
43606;SDS011;29197;44.788;10.366;2024-01-15T06:29:44;67.37;;;37.67;;
43606;SDS011;29197;44.788;10.366;2024-01-15T06:32:36;61.07;;;34.80;;
43606;SDS011;29197;44.788;10.366;2024-01-15T06:35:25;63.73;;;36.47;;
43606;SDS011;29197;44.788;10.366;2024-01-15T06:38:15;61.70;;;35.13;;
43606;SDS011;29197;44.788;10.366;2024-01-15T06:41:04;61.47;;;34.93;;
43606;SDS011;29197;44.788;10.366;2024-01-15T06:43:53;60.13;;;35.67;;
43606;SDS011;29197;44.788;10.366;2024-01-15T06:46:42;58.43;;;33.33;;
43606;SDS011;29197;44.788;10.366;2024-01-15T06:49:31;61.50;;;36.47;;
43606;SDS011;29197;44.788;10.366;2024-01-15T06:52:20;66.87;;;37.30;;
43606;SDS011;29197;44.788;10.366;2024-01-15T06:55:10;62.43;;;35.37;;
43606;SDS011;29197;44.788;10.366;2024-01-15T06:57:59;64.30;;;37.87;;
43606;SDS011;29197;44.788;10.366;2024-01-15T07:00:48;68.70;;;36.57;;
43606;SDS011;29197;44.788;10.366;2024-01-15T07:03:37;60.87;;;36.00;;
43606;SDS011;29197;44.788;10.366;2024-01-15T07:06:27;65.60;;;36.93;;
43606;SDS011;29197;44.788;10.366;2024-01-15T07:09:17;59.57;;;35.07;;
43606;SDS011;29197;44.788;10.366;2024-01-15T07:12:07;61.47;;;36.83;;
43606;SDS011;29197;44.788;10.366;2024-01-15T07:14:56;64.17;;;36.03;;
43606;SDS011;29197;44.788;10.366;2024-01-15T07:17:45;65.23;;;35.97;;
43606;SDS011;29197;44.788;10.366;2024-01-15T07:20:34;54.67;;;34.07;;
43606;SDS011;29197;44.788;10.366;2024-01-15T07:23:23;64.17;;;35.87;;
43606;SDS011;29197;44.788;10.366;2024-01-15T07:26:16;63.60;;;35.90;;
43606;SDS011;29197;44.788;10.366;2024-01-15T07:29:06;63.47;;;36.20;;
43606;SDS011;29197;44.788;10.366;2024-01-15T07:31:55;61.43;;;35.07;;
43606;SDS011;29197;44.788;10.366;2024-01-15T07:34:44;65.13;;;36.40;;
43606;SDS011;29197;44.788;10.366;2024-01-15T07:37:33;68.20;;;35.87;;
43606;SDS011;29197;44.788;10.366;2024-01-15T07:40:22;73.33;;;37.60;;
43606;SDS011;29197;44.788;10.366;2024-01-15T07:43:11;70.17;;;39.40;;
43606;SDS011;29197;44.788;10.366;2024-01-15T07:46:01;67.53;;;37.70;;
43606;SDS011;29197;44.788;10.366;2024-01-15T07:48:50;70.13;;;38.40;;
43606;SDS011;29197;44.788;10.366;2024-01-15T07:51:43;61.93;;;36.43;;
43606;SDS011;29197;44.788;10.366;2024-01-15T07:54:32;70.83;;;37.77;;
43606;SDS011;29197;44.788;10.366;2024-01-15T07:57:21;72.13;;;37.93;;
43606;SDS011;29197;44.788;10.366;2024-01-15T08:00:10;66.37;;;37.27;;
43606;SDS011;29197;44.788;10.366;2024-01-15T08:03:01;64.97;;;37.70;;
43606;SDS011;29197;44.788;10.366;2024-01-15T08:05:50;64.77;;;36.83;;
43606;SDS011;29197;44.788;10.366;2024-01-15T08:08:41;64.80;;;39.10;;
43606;SDS011;29197;44.788;10.366;2024-01-15T08:11:30;69.53;;;38.10;;
43606;SDS011;29197;44.788;10.366;2024-01-15T08:14:18;74.17;;;38.37;;
43606;SDS011;29197;44.788;10.366;2024-01-15T08:17:07;73.00;;;38.40;;
43606;SDS011;29197;44.788;10.366;2024-01-15T08:19:58;67.00;;;37.00;;
43606;SDS011;29197;44.788;10.366;2024-01-15T08:22:48;71.27;;;39.23;;
43606;SDS011;29197;44.788;10.366;2024-01-15T08:25:37;72.93;;;39.73;;
43606;SDS011;29197;44.788;10.366;2024-01-15T08:28:26;65.77;;;37.27;;
43606;SDS011;29197;44.788;10.366;2024-01-15T08:31:15;67.07;;;36.97;;
43606;SDS011;29197;44.788;10.366;2024-01-15T08:34:03;65.63;;;37.13;;
43606;SDS011;29197;44.788;10.366;2024-01-15T08:36:54;69.43;;;38.93;;
43606;SDS011;29197;44.788;10.366;2024-01-15T08:39:43;63.97;;;36.90;;
43606;SDS011;29197;44.788;10.366;2024-01-15T08:42:35;66.10;;;38.87;;
43606;SDS011;29197;44.788;10.366;2024-01-15T08:45:24;68.70;;;38.80;;
43606;SDS011;29197;44.788;10.366;2024-01-15T08:48:16;69.20;;;37.33;;
43606;SDS011;29197;44.788;10.366;2024-01-15T08:51:05;71.13;;;40.17;;
43606;SDS011;29197;44.788;10.366;2024-01-15T08:53:56;71.07;;;37.53;;
43606;SDS011;29197;44.788;10.366;2024-01-15T08:56:45;62.47;;;36.90;;
43606;SDS011;29197;44.788;10.366;2024-01-15T08:59:34;67.40;;;36.80;;
43606;SDS011;29197;44.788;10.366;2024-01-15T09:02:23;73.40;;;38.40;;
43606;SDS011;29197;44.788;10.366;2024-01-15T09:05:12;73.53;;;39.17;;
43606;SDS011;29197;44.788;10.366;2024-01-15T09:08:01;63.70;;;37.70;;
43606;SDS011;29197;44.788;10.366;2024-01-15T09:10:51;69.97;;;38.40;;
43606;SDS011;29197;44.788;10.366;2024-01-15T09:13:40;65.57;;;37.17;;
43606;SDS011;29197;44.788;10.366;2024-01-15T09:16:29;64.27;;;36.70;;
43606;SDS011;29197;44.788;10.366;2024-01-15T09:19:18;71.47;;;39.43;;
43606;SDS011;29197;44.788;10.366;2024-01-15T09:22:07;71.37;;;38.63;;
43606;SDS011;29197;44.788;10.366;2024-01-15T09:24:56;65.67;;;37.27;;
43606;SDS011;29197;44.788;10.366;2024-01-15T09:27:47;67.77;;;38.30;;
43606;SDS011;29197;44.788;10.366;2024-01-15T09:30:36;63.30;;;37.57;;
43606;SDS011;29197;44.788;10.366;2024-01-15T09:33:25;66.57;;;38.07;;
43606;SDS011;29197;44.788;10.366;2024-01-15T09:36:14;62.83;;;36.80;;
43606;SDS011;29197;44.788;10.366;2024-01-15T09:39:03;70.77;;;39.83;;
43606;SDS011;29197;44.788;10.366;2024-01-15T09:41:55;73.43;;;39.53;;
43606;SDS011;29197;44.788;10.366;2024-01-15T09:44:45;72.67;;;41.50;;
43606;SDS011;29197;44.788;10.366;2024-01-15T09:47:35;70.70;;;40.00;;
43606;SDS011;29197;44.788;10.366;2024-01-15T09:50:28;73.20;;;41.07;;
43606;SDS011;29197;44.788;10.366;2024-01-15T09:53:17;70.53;;;39.30;;
43606;SDS011;29197;44.788;10.366;2024-01-15T09:56:06;67.80;;;38.47;;
43606;SDS011;29197;44.788;10.366;2024-01-15T09:58:55;65.20;;;36.63;;
43606;SDS011;29197;44.788;10.366;2024-01-15T10:01:45;63.60;;;37.27;;
43606;SDS011;29197;44.788;10.366;2024-01-15T10:04:35;65.73;;;37.63;;
43606;SDS011;29197;44.788;10.366;2024-01-15T10:07:24;67.77;;;37.43;;
43606;SDS011;29197;44.788;10.366;2024-01-15T10:10:15;63.43;;;38.13;;
43606;SDS011;29197;44.788;10.366;2024-01-15T10:13:04;65.33;;;38.20;;
43606;SDS011;29197;44.788;10.366;2024-01-15T10:15:53;66.70;;;36.33;;
43606;SDS011;29197;44.788;10.366;2024-01-15T10:18:44;62.30;;;36.70;;
43606;SDS011;29197;44.788;10.366;2024-01-15T10:21:33;63.57;;;37.00;;
43606;SDS011;29197;44.788;10.366;2024-01-15T10:24:22;61.97;;;36.07;;
43606;SDS011;29197;44.788;10.366;2024-01-15T10:27:11;60.77;;;36.07;;
43606;SDS011;29197;44.788;10.366;2024-01-15T10:30:00;60.17;;;35.73;;
43606;SDS011;29197;44.788;10.366;2024-01-15T10:32:56;55.73;;;33.10;;
43606;SDS011;29197;44.788;10.366;2024-01-15T10:35:47;57.73;;;33.47;;
43606;SDS011;29197;44.788;10.366;2024-01-15T10:38:36;56.37;;;35.43;;
43606;SDS011;29197;44.788;10.366;2024-01-15T10:41:25;60.90;;;35.37;;
43606;SDS011;29197;44.788;10.366;2024-01-15T10:44:14;55.43;;;33.70;;
43606;SDS011;29197;44.788;10.366;2024-01-15T10:47:03;59.03;;;34.20;;
43606;SDS011;29197;44.788;10.366;2024-01-15T10:49:52;57.20;;;34.00;;
43606;SDS011;29197;44.788;10.366;2024-01-15T10:52:43;51.33;;;31.67;;
43606;SDS011;29197;44.788;10.366;2024-01-15T10:55:33;54.77;;;33.00;;
43606;SDS011;29197;44.788;10.366;2024-01-15T10:58:22;52.07;;;31.97;;
43606;SDS011;29197;44.788;10.366;2024-01-15T11:01:11;56.20;;;32.10;;
43606;SDS011;29197;44.788;10.366;2024-01-15T11:04:00;57.33;;;34.10;;
43606;SDS011;29197;44.788;10.366;2024-01-15T11:06:50;48.80;;;31.47;;
43606;SDS011;29197;44.788;10.366;2024-01-15T11:09:42;47.23;;;30.10;;
43606;SDS011;29197;44.788;10.366;2024-01-15T11:12:31;51.63;;;31.83;;
43606;SDS011;29197;44.788;10.366;2024-01-15T11:15:20;50.00;;;31.37;;
43606;SDS011;29197;44.788;10.366;2024-01-15T11:18:09;49.03;;;31.80;;
43606;SDS011;29197;44.788;10.366;2024-01-15T11:24:06;50.60;;;31.00;;
43606;SDS011;29197;44.788;10.366;2024-01-15T11:26:59;47.90;;;31.37;;
43606;SDS011;29197;44.788;10.366;2024-01-15T11:29:48;48.73;;;30.63;;
43606;SDS011;29197;44.788;10.366;2024-01-15T11:32:51;47.83;;;31.00;;
43606;SDS011;29197;44.788;10.366;2024-01-15T11:35:49;50.07;;;32.07;;
43606;SDS011;29197;44.788;10.366;2024-01-15T11:38:38;50.17;;;31.47;;
43606;SDS011;29197;44.788;10.366;2024-01-15T11:41:27;48.90;;;30.80;;
43606;SDS011;29197;44.788;10.366;2024-01-15T11:44:17;52.77;;;32.07;;
43606;SDS011;29197;44.788;10.366;2024-01-15T12:20:23;47.10;;;29.48;;
43606;SDS011;29197;44.788;10.366;2024-01-15T12:23:12;46.40;;;27.92;;
43606;SDS011;29197;44.788;10.366;2024-01-15T12:26:01;43.75;;;26.88;;
43606;SDS011;29197;44.788;10.366;2024-01-15T12:28:51;46.53;;;28.75;;
43606;SDS011;29197;44.788;10.366;2024-01-15T12:31:46;44.10;;;27.98;;
43606;SDS011;29197;44.788;10.366;2024-01-15T12:34:35;46.40;;;29.15;;
43606;SDS011;29197;44.788;10.366;2024-01-15T12:37:25;42.08;;;28.02;;
43606;SDS011;29197;44.788;10.366;2024-01-15T12:40:18;43.67;;;27.20;;
43606;SDS011;29197;44.788;10.366;2024-01-15T12:43:07;41.20;;;27.40;;
43606;SDS011;29197;44.788;10.366;2024-01-15T12:45:56;45.83;;;29.45;;
43606;SDS011;29197;44.788;10.366;2024-01-15T12:48:45;43.67;;;27.35;;
43606;SDS011;29197;44.788;10.366;2024-01-15T12:51:34;42.20;;;27.00;;
43606;SDS011;29197;44.788;10.366;2024-01-15T12:54:25;41.38;;;27.50;;
43606;SDS011;29197;44.788;10.366;2024-01-15T12:57:14;45.05;;;28.55;;
43606;SDS011;29197;44.788;10.366;2024-01-15T13:00:03;42.33;;;28.63;;
43606;SDS011;29197;44.788;10.366;2024-01-15T13:02:53;46.35;;;29.30;;
43606;SDS011;29197;44.788;10.366;2024-01-15T13:05:44;43.20;;;26.88;;
43606;SDS011;29197;44.788;10.366;2024-01-15T13:08:33;40.85;;;27.75;;
43606;SDS011;29197;44.788;10.366;2024-01-15T13:11:23;40.60;;;27.25;;
43606;SDS011;29197;44.788;10.366;2024-01-15T13:14:12;45.03;;;27.60;;
43606;SDS011;29197;44.788;10.366;2024-01-15T13:17:01;37.00;;;24.85;;
43606;SDS011;29197;44.788;10.366;2024-01-15T13:19:50;41.35;;;26.83;;
43606;SDS011;29197;44.788;10.366;2024-01-15T13:22:39;41.45;;;26.95;;
43606;SDS011;29197;44.788;10.366;2024-01-15T13:25:31;41.65;;;28.27;;
43606;SDS011;29197;44.788;10.366;2024-01-15T13:28:22;40.83;;;27.27;;
43606;SDS011;29197;44.788;10.366;2024-01-15T13:31:12;46.67;;;28.95;;
43606;SDS011;29197;44.788;10.366;2024-01-15T13:34:01;48.58;;;31.35;;
43606;SDS011;29197;44.788;10.366;2024-01-15T13:36:51;45.90;;;29.38;;
43606;SDS011;29197;44.788;10.366;2024-01-15T13:39:40;42.95;;;27.08;;
43606;SDS011;29197;44.788;10.366;2024-01-15T13:42:29;43.38;;;28.52;;
43606;SDS011;29197;44.788;10.366;2024-01-15T13:45:19;43.05;;;26.98;;
43606;SDS011;29197;44.788;10.366;2024-01-15T13:48:10;42.00;;;27.58;;
43606;SDS011;29197;44.788;10.366;2024-01-15T13:50:59;40.03;;;25.95;;
43606;SDS011;29197;44.788;10.366;2024-01-15T13:53:48;37.38;;;24.80;;
43606;SDS011;29197;44.788;10.366;2024-01-15T13:56:37;37.38;;;24.33;;
43606;SDS011;29197;44.788;10.366;2024-01-15T13:59:26;35.75;;;23.58;;
43606;SDS011;29197;44.788;10.366;2024-01-15T14:02:16;34.58;;;22.40;;
43606;SDS011;29197;44.788;10.366;2024-01-15T14:05:09;35.78;;;23.80;;
43606;SDS011;29197;44.788;10.366;2024-01-15T14:07:59;34.37;;;21.50;;
43606;SDS011;29197;44.788;10.366;2024-01-15T14:10:48;36.23;;;23.10;;
43606;SDS011;29197;44.788;10.366;2024-01-15T14:13:37;34.42;;;22.95;;
43606;SDS011;29197;44.788;10.366;2024-01-15T14:16:26;39.00;;;23.55;;
43606;SDS011;29197;44.788;10.366;2024-01-15T14:19:16;44.17;;;26.30;;
43606;SDS011;29197;44.788;10.366;2024-01-15T14:22:05;41.20;;;25.83;;
43606;SDS011;29197;44.788;10.366;2024-01-15T14:24:54;41.33;;;25.57;;
43606;SDS011;29197;44.788;10.366;2024-01-15T14:27:43;41.43;;;26.33;;
43606;SDS011;29197;44.788;10.366;2024-01-15T14:30:32;42.40;;;26.77;;
43606;SDS011;29197;44.788;10.366;2024-01-15T14:33:21;42.93;;;27.03;;
43606;SDS011;29197;44.788;10.366;2024-01-15T14:36:11;41.77;;;25.97;;
43606;SDS011;29197;44.788;10.366;2024-01-15T14:39:00;42.10;;;27.00;;
43606;SDS011;29197;44.788;10.366;2024-01-15T14:41:49;43.60;;;26.80;;
43606;SDS011;29197;44.788;10.366;2024-01-15T14:44:38;37.37;;;24.70;;
43606;SDS011;29197;44.788;10.366;2024-01-15T14:47:27;42.87;;;25.27;;
43606;SDS011;29197;44.788;10.366;2024-01-15T14:50:16;43.83;;;25.80;;
43606;SDS011;29197;44.788;10.366;2024-01-15T14:53:07;43.37;;;25.97;;
43606;SDS011;29197;44.788;10.366;2024-01-15T14:55:56;43.43;;;27.20;;
43606;SDS011;29197;44.788;10.366;2024-01-15T14:58:45;48.20;;;29.27;;
43606;SDS011;29197;44.788;10.366;2024-01-15T15:01:34;47.30;;;29.50;;
43606;SDS011;29197;44.788;10.366;2024-01-15T15:04:23;47.97;;;31.50;;
43606;SDS011;29197;44.788;10.366;2024-01-15T15:07:12;50.30;;;30.63;;
43606;SDS011;29197;44.788;10.366;2024-01-15T15:10:02;49.90;;;30.47;;
43606;SDS011;29197;44.788;10.366;2024-01-15T15:12:51;50.37;;;29.67;;
43606;SDS011;29197;44.788;10.366;2024-01-15T15:15:40;46.20;;;28.33;;
43606;SDS011;29197;44.788;10.366;2024-01-15T15:18:29;47.03;;;28.97;;
43606;SDS011;29197;44.788;10.366;2024-01-15T15:21:18;42.77;;;27.07;;
43606;SDS011;29197;44.788;10.366;2024-01-15T15:24:07;49.93;;;29.33;;
43606;SDS011;29197;44.788;10.366;2024-01-15T15:26:57;49.47;;;28.77;;
43606;SDS011;29197;44.788;10.366;2024-01-15T15:29:47;50.00;;;31.27;;
43606;SDS011;29197;44.788;10.366;2024-01-15T15:32:37;48.57;;;29.57;;
43606;SDS011;29197;44.788;10.366;2024-01-15T15:35:27;48.30;;;29.23;;
43606;SDS011;29197;44.788;10.366;2024-01-15T15:38:16;48.17;;;29.97;;
43606;SDS011;29197;44.788;10.366;2024-01-15T15:41:05;49.40;;;29.23;;
43606;SDS011;29197;44.788;10.366;2024-01-15T15:43:56;54.13;;;31.83;;
43606;SDS011;29197;44.788;10.366;2024-01-15T15:46:45;47.67;;;28.40;;
43606;SDS011;29197;44.788;10.366;2024-01-15T15:49:34;50.93;;;30.87;;
43606;SDS011;29197;44.788;10.366;2024-01-15T15:52:23;53.67;;;32.23;;
43606;SDS011;29197;44.788;10.366;2024-01-15T15:55:12;52.83;;;31.70;;
43606;SDS011;29197;44.788;10.366;2024-01-15T15:58:00;54.70;;;32.10;;
43606;SDS011;29197;44.788;10.366;2024-01-15T16:00:51;53.23;;;32.07;;
43606;SDS011;29197;44.788;10.366;2024-01-15T16:03:40;49.57;;;29.87;;
43606;SDS011;29197;44.788;10.366;2024-01-15T16:06:29;54.27;;;31.80;;
43606;SDS011;29197;44.788;10.366;2024-01-15T16:09:18;48.43;;;29.87;;
43606;SDS011;29197;44.788;10.366;2024-01-15T16:12:08;51.77;;;30.07;;
43606;SDS011;29197;44.788;10.366;2024-01-15T16:14:57;58.03;;;31.70;;
43606;SDS011;29197;44.788;10.366;2024-01-15T16:17:48;54.30;;;32.40;;
43606;SDS011;29197;44.788;10.366;2024-01-15T16:20:56;50.07;;;30.47;;
43606;SDS011;29197;44.788;10.366;2024-01-15T16:24:05;51.73;;;31.20;;
43606;SDS011;29197;44.788;10.366;2024-01-15T16:27:08;49.50;;;30.03;;
43606;SDS011;29197;44.788;10.366;2024-01-15T16:30:01;49.33;;;32.23;;
43606;SDS011;29197;44.788;10.366;2024-01-15T16:33:04;55.70;;;31.30;;
43606;SDS011;29197;44.788;10.366;2024-01-15T16:35:53;57.50;;;33.50;;
43606;SDS011;29197;44.788;10.366;2024-01-15T16:38:42;59.03;;;35.07;;
43606;SDS011;29197;44.788;10.366;2024-01-15T16:41:31;58.03;;;34.47;;
43606;SDS011;29197;44.788;10.366;2024-01-15T16:44:20;55.83;;;32.37;;
43606;SDS011;29197;44.788;10.366;2024-01-15T16:47:09;50.40;;;30.43;;
43606;SDS011;29197;44.788;10.366;2024-01-15T16:49:59;55.50;;;32.07;;
43606;SDS011;29197;44.788;10.366;2024-01-15T16:52:48;57.30;;;31.43;;
43606;SDS011;29197;44.788;10.366;2024-01-15T16:55:37;53.87;;;31.00;;